createdAt,value
2019-03-21T00:00:07.764Z,43.60
2019-03-21T00:01:07.756Z,43.72
2019-03-21T00:02:07.745Z,43.50
2019-03-21T00:03:07.735Z,43.42
2019-03-21T00:04:07.731Z,43.62
2019-03-21T00:05:07.718Z,43.42
2019-03-21T00:06:07.698Z,44.02
2019-03-21T00:07:07.686Z,43.72
2019-03-21T00:08:07.674Z,43.42
2019-03-21T00:09:07.685Z,44.32
2019-03-21T00:10:07.652Z,43.32
2019-03-21T00:11:07.653Z,43.70
2019-03-21T00:12:07.635Z,43.30
2019-03-21T00:13:07.620Z,42.27
2019-03-21T00:14:07.638Z,43.06
2019-03-21T00:15:07.603Z,41.96
2019-03-21T00:16:07.601Z,41.63
2019-03-21T00:17:07.579Z,41.31
2019-03-21T00:18:07.564Z,41.82
2019-03-21T00:19:07.589Z,41.49
2019-03-21T00:20:07.545Z,40.39
2019-03-21T00:21:07.537Z,41.07
2019-03-21T00:22:07.527Z,40.25
2019-03-21T00:23:07.521Z,40.25
2019-03-21T00:24:07.500Z,39.55
2019-03-21T00:25:07.510Z,39.93
2019-03-21T00:26:07.485Z,39.22
2019-03-21T00:27:07.473Z,38.61
2019-03-21T00:28:07.457Z,38.51
2019-03-21T00:29:07.451Z,38.29
2019-03-21T00:30:07.452Z,37.59
2019-03-21T00:31:07.428Z,37.70
2019-03-21T00:32:07.423Z,37.68
2019-03-21T00:33:07.407Z,37.48
2019-03-21T00:34:07.395Z,37.58
2019-03-21T00:35:07.407Z,37.66
2019-03-21T00:36:07.372Z,37.14
2019-03-21T00:37:07.388Z,36.24
2019-03-21T00:38:07.360Z,37.14
2019-03-21T00:39:07.347Z,36.02
2019-03-21T00:40:07.347Z,36.11
2019-03-21T00:41:07.318Z,36.11
2019-03-21T00:42:07.309Z,35.51
2019-03-21T00:43:07.301Z,35.31
2019-03-21T00:44:17.569Z,35.41
2019-03-21T00:45:08.293Z,35.29
2019-03-21T00:46:07.267Z,35.89
2019-03-21T00:47:07.264Z,35.89
2019-03-21T00:48:07.245Z,35.19
2019-03-21T00:49:07.238Z,35.89
2019-03-21T00:50:07.242Z,35.69
2019-03-21T00:51:07.218Z,35.89
2019-03-21T00:52:07.204Z,35.59
2019-03-21T00:53:07.200Z,35.49
2019-03-21T00:54:07.183Z,35.59
2019-03-21T00:55:07.195Z,35.31
2019-03-21T00:56:07.181Z,35.21
2019-03-21T00:57:07.152Z,35.81
2019-03-21T00:58:07.139Z,35.51
2019-03-21T00:59:07.131Z,35.71
2019-03-21T01:00:07.120Z,35.81
2019-03-21T01:01:07.128Z,35.81
2019-03-21T01:02:07.102Z,35.51
2019-03-21T01:03:07.092Z,35.81
2019-03-21T01:04:07.076Z,35.71
2019-03-21T01:05:07.065Z,35.59
2019-03-21T01:06:07.072Z,35.39
2019-03-21T01:07:07.048Z,35.97
2019-03-21T01:08:07.038Z,35.17
2019-03-21T01:09:07.025Z,34.88
2019-03-21T01:10:07.016Z,34.98
2019-03-21T01:11:07.024Z,34.48
2019-03-21T01:12:06.994Z,34.46
2019-03-21T01:13:06.989Z,34.96
2019-03-21T01:14:06.972Z,35.14
2019-03-21T01:15:06.962Z,33.95
2019-03-21T01:16:06.962Z,34.55
2019-03-21T01:17:06.939Z,34.25
2019-03-21T01:18:06.934Z,34.25
2019-03-21T01:19:06.916Z,34.03
2019-03-21T01:20:06.910Z,34.13
2019-03-21T01:21:06.912Z,33.73
2019-03-21T01:22:06.886Z,34.03
2019-03-21T01:23:06.874Z,34.23
2019-03-21T01:24:06.863Z,34.13
2019-03-21T01:25:06.895Z,34.03
2019-03-21T01:26:06.933Z,34.23
2019-03-21T01:27:07.044Z,34.13
2019-03-21T01:28:06.830Z,34.03
2019-03-21T01:29:06.843Z,34.03
2019-03-21T01:30:06.802Z,34.33
2019-03-21T01:31:06.811Z,34.53
2019-03-21T01:32:06.782Z,34.13
2019-03-21T01:33:06.774Z,34.13
2019-03-21T01:34:06.762Z,34.23
2019-03-21T01:35:06.754Z,33.73
2019-03-21T01:36:06.762Z,33.63
2019-03-21T01:37:06.731Z,34.03
2019-03-21T01:38:06.717Z,33.63
2019-03-21T01:39:06.707Z,33.73
2019-03-21T01:40:06.697Z,33.83
2019-03-21T01:41:06.697Z,34.15
2019-03-21T01:42:06.697Z,34.25
2019-03-21T01:43:06.667Z,34.25
2019-03-21T01:44:06.659Z,34.43
2019-03-21T01:45:06.643Z,34.45
2019-03-21T01:46:06.632Z,34.45
2019-03-21T01:47:06.646Z,33.85
2019-03-21T01:48:06.612Z,34.25
2019-03-21T01:49:06.601Z,34.34
2019-03-21T01:50:06.600Z,34.15
2019-03-21T01:51:06.580Z,33.85
2019-03-21T01:52:06.586Z,33.95
2019-03-21T01:53:06.558Z,34.55
2019-03-21T01:54:06.550Z,34.46
2019-03-21T01:55:06.538Z,34.16
2019-03-21T01:56:06.524Z,34.56
2019-03-21T01:57:06.530Z,34.56
2019-03-21T01:58:06.509Z,34.76
2019-03-21T01:59:06.494Z,34.76
2019-03-21T02:00:06.485Z,34.96
2019-03-21T02:01:08.719Z,34.36
2019-03-21T02:02:06.485Z,34.48
2019-03-21T02:03:06.452Z,34.58
2019-03-21T02:04:06.441Z,34.08
2019-03-21T02:05:06.432Z,34.58
2019-03-21T02:06:06.419Z,34.48
2019-03-21T02:07:06.441Z,34.78
2019-03-21T02:08:06.406Z,34.78
2019-03-21T02:09:06.386Z,34.98
2019-03-21T02:10:06.378Z,35.38
2019-03-21T02:11:06.366Z,35.28
2019-03-21T02:12:06.360Z,35.29
2019-03-21T02:13:06.367Z,35.08
2019-03-21T02:14:06.332Z,34.99
2019-03-21T02:15:06.330Z,34.38
2019-03-21T02:16:06.320Z,35.89
2019-03-21T02:17:06.303Z,35.69
2019-03-21T02:18:06.316Z,35.49
2019-03-21T02:19:06.281Z,35.61
2019-03-21T02:20:06.280Z,35.51
2019-03-21T02:21:06.259Z,35.51
2019-03-21T02:22:06.254Z,35.31
2019-03-21T02:23:06.254Z,35.31
2019-03-21T02:24:06.226Z,35.61
2019-03-21T02:25:06.220Z,35.31
2019-03-21T02:26:06.207Z,35.11
2019-03-21T02:27:06.202Z,35.51
2019-03-21T02:28:06.204Z,35.21
2019-03-21T02:29:06.275Z,35.51
2019-03-21T02:30:06.170Z,35.10
2019-03-21T02:31:06.182Z,35.71
2019-03-21T02:32:06.151Z,35.69
2019-03-21T02:33:06.159Z,35.49
2019-03-21T02:34:06.122Z,35.49
2019-03-21T02:35:06.115Z,35.19
2019-03-21T02:36:06.125Z,35.19
2019-03-21T02:37:06.096Z,35.59
2019-03-21T02:38:06.086Z,36.09
2019-03-21T02:39:06.093Z,35.39
2019-03-21T02:40:06.064Z,35.49
2019-03-21T02:41:06.054Z,35.79
2019-03-21T02:42:06.036Z,35.49
2019-03-21T02:43:06.026Z,35.69
2019-03-21T02:44:06.034Z,35.59
2019-03-21T02:45:09.074Z,35.71
2019-03-21T02:46:05.997Z,35.10
2019-03-21T02:47:05.990Z,35.31
2019-03-21T02:48:05.973Z,35.31
2019-03-21T02:49:05.984Z,35.81
2019-03-21T02:50:05.956Z,35.51
2019-03-21T02:51:05.945Z,35.91
2019-03-21T02:52:05.943Z,36.11
2019-03-21T02:53:05.954Z,35.51
2019-03-21T02:54:05.926Z,35.81
2019-03-21T02:55:05.917Z,35.51
2019-03-21T02:56:05.892Z,35.71
2019-03-21T02:57:05.879Z,36.01
2019-03-21T02:58:05.875Z,36.01
2019-03-21T02:59:05.874Z,36.31
2019-03-21T03:00:05.857Z,36.31
2019-03-21T03:01:05.844Z,35.41
2019-03-21T03:02:05.831Z,35.21
2019-03-21T03:03:05.827Z,36.31
2019-03-21T03:04:05.826Z,36.31
2019-03-21T03:05:05.800Z,36.01
2019-03-21T03:06:05.789Z,36.22
2019-03-21T03:07:05.782Z,36.13
2019-03-21T03:08:05.763Z,36.32
2019-03-21T03:09:05.776Z,36.43
2019-03-21T03:10:05.745Z,36.22
2019-03-21T03:11:05.738Z,36.82
2019-03-21T03:12:05.730Z,36.52
2019-03-21T03:13:05.722Z,36.63
2019-03-21T03:14:05.724Z,37.14
2019-03-21T03:15:05.700Z,37.04
2019-03-21T03:16:05.701Z,36.64
2019-03-21T03:17:05.669Z,36.34
2019-03-21T03:18:05.655Z,36.54
2019-03-21T03:19:05.673Z,37.54
2019-03-21T03:20:05.637Z,37.24
2019-03-21T03:21:05.633Z,37.26
2019-03-21T03:22:05.612Z,37.24
2019-03-21T03:23:05.611Z,37.16
2019-03-21T03:24:05.613Z,37.26
2019-03-21T03:25:05.592Z,37.46
2019-03-21T03:26:05.583Z,37.06
2019-03-21T03:27:05.566Z,37.36
2019-03-21T03:28:05.555Z,36.94
2019-03-21T03:29:05.557Z,37.04
2019-03-21T03:30:05.538Z,37.34
2019-03-21T03:31:05.522Z,37.44
2019-03-21T03:32:05.516Z,37.14
2019-03-21T03:33:05.517Z,37.34
2019-03-21T03:34:05.521Z,36.94
2019-03-21T03:35:05.483Z,37.44
2019-03-21T03:36:05.472Z,36.24
2019-03-21T03:37:05.460Z,36.63
2019-03-21T03:38:05.450Z,36.64
2019-03-21T03:39:05.451Z,36.93
2019-03-21T03:40:05.420Z,36.13
2019-03-21T03:41:05.423Z,36.02
2019-03-21T03:42:05.401Z,36.21
2019-03-21T03:43:05.393Z,36.01
2019-03-21T03:44:05.397Z,35.81
2019-03-21T03:45:05.372Z,36.01
2019-03-21T03:46:05.368Z,35.41
2019-03-21T03:47:05.370Z,36.21
2019-03-21T03:48:05.350Z,35.19
2019-03-21T03:49:05.345Z,35.59
2019-03-21T03:50:05.331Z,35.49
2019-03-21T03:51:05.312Z,35.17
2019-03-21T03:52:05.296Z,35.49
2019-03-21T03:53:05.281Z,35.97
2019-03-21T03:54:05.313Z,35.97
2019-03-21T03:55:05.265Z,35.69
2019-03-21T03:56:05.258Z,34.58
2019-03-21T03:57:05.246Z,34.58
2019-03-21T03:58:05.232Z,34.88
2019-03-21T03:59:05.236Z,34.98
2019-03-21T04:00:05.240Z,35.08
2019-03-21T04:01:05.203Z,34.98
2019-03-21T04:02:05.197Z,34.98
2019-03-21T04:03:05.185Z,34.78
2019-03-21T04:04:05.185Z,34.38
2019-03-21T04:05:05.155Z,34.88
2019-03-21T04:06:05.201Z,34.98
2019-03-21T04:07:05.145Z,34.98
2019-03-21T04:08:05.128Z,35.17
2019-03-21T04:09:05.148Z,35.17
2019-03-21T04:10:05.142Z,35.17
2019-03-21T04:11:05.096Z,35.08
2019-03-21T04:12:05.099Z,34.88
2019-03-21T04:13:05.078Z,35.17
2019-03-21T04:14:05.073Z,34.88
2019-03-21T04:15:05.054Z,34.98
2019-03-21T04:16:05.042Z,34.88
2019-03-21T04:17:05.037Z,35.08
2019-03-21T04:18:05.027Z,35.08
2019-03-21T04:19:05.045Z,34.98
2019-03-21T04:20:04.997Z,34.98
2019-03-21T04:21:04.991Z,34.98
2019-03-21T04:22:04.984Z,34.98
2019-03-21T04:23:04.969Z,34.98
2019-03-21T04:24:04.968Z,34.88
2019-03-21T04:25:04.947Z,34.58
2019-03-21T04:26:04.942Z,35.88
2019-03-21T04:27:04.922Z,35.97
2019-03-21T04:28:04.915Z,35.69
2019-03-21T04:29:04.923Z,35.89
2019-03-21T04:30:04.895Z,35.89
2019-03-21T04:31:04.888Z,35.88
2019-03-21T04:32:04.873Z,35.99
2019-03-21T04:33:04.863Z,35.79
2019-03-21T04:34:04.889Z,35.89
2019-03-21T04:35:04.839Z,35.99
2019-03-21T04:36:04.831Z,35.38
2019-03-21T04:37:04.820Z,34.89
2019-03-21T04:38:04.811Z,35.08
2019-03-21T04:39:04.819Z,35.17
2019-03-21T04:40:04.804Z,35.17
2019-03-21T04:41:04.778Z,34.78
2019-03-21T04:42:04.766Z,34.66
2019-03-21T04:43:04.755Z,34.96
2019-03-21T04:44:04.757Z,35.38
2019-03-21T04:45:04.730Z,34.76
2019-03-21T04:46:04.721Z,34.46
2019-03-21T04:47:04.712Z,34.27
2019-03-21T04:48:04.699Z,34.06
2019-03-21T04:49:04.705Z,34.66
2019-03-21T04:50:04.675Z,34.86
2019-03-21T04:51:04.669Z,34.27
2019-03-21T04:52:04.672Z,34.56
2019-03-21T04:53:04.649Z,34.36
2019-03-21T04:54:04.659Z,34.46
2019-03-21T04:55:04.631Z,34.76
2019-03-21T04:56:04.615Z,34.36
2019-03-21T04:57:04.607Z,35.16
2019-03-21T04:58:04.599Z,35.36
2019-03-21T04:59:04.596Z,34.56
2019-03-21T05:00:04.578Z,34.15
2019-03-21T05:01:04.567Z,34.75
2019-03-21T05:02:04.554Z,34.84
2019-03-21T05:03:04.545Z,34.94
2019-03-21T05:04:04.545Z,34.94
2019-03-21T05:05:04.521Z,34.84
2019-03-21T05:06:04.510Z,34.94
2019-03-21T05:07:04.498Z,34.94
2019-03-21T05:08:04.491Z,34.94
2019-03-21T05:09:04.508Z,34.94
2019-03-21T05:10:04.469Z,34.94
2019-03-21T05:11:04.461Z,34.75
2019-03-21T05:12:04.449Z,34.25
2019-03-21T05:13:04.439Z,34.83
2019-03-21T05:14:04.428Z,34.92
2019-03-21T05:15:04.428Z,34.25
2019-03-21T05:16:14.381Z,34.94
2019-03-21T05:17:05.400Z,34.45
2019-03-21T05:18:04.387Z,34.25
2019-03-21T05:19:04.382Z,34.15
2019-03-21T05:20:04.397Z,34.55
2019-03-21T05:21:04.351Z,34.64
2019-03-21T05:22:04.339Z,34.64
2019-03-21T05:23:04.390Z,34.16
2019-03-21T05:24:04.331Z,34.36
2019-03-21T05:25:04.326Z,34.46
2019-03-21T05:26:04.342Z,34.86
2019-03-21T05:27:04.289Z,34.98
2019-03-21T05:28:04.281Z,35.88
2019-03-21T05:29:04.276Z,35.88
2019-03-21T05:30:04.270Z,37.07
2019-03-21T05:31:04.251Z,37.07
2019-03-21T05:32:04.246Z,37.27
2019-03-21T05:33:04.224Z,37.37
2019-03-21T05:34:04.218Z,37.38
2019-03-21T05:35:04.216Z,37.38
2019-03-21T05:36:04.196Z,37.08
2019-03-21T05:37:04.187Z,37.29
2019-03-21T05:38:04.176Z,37.81
2019-03-21T05:39:04.166Z,38.50
2019-03-21T05:40:04.168Z,38.60
2019-03-21T05:41:04.144Z,38.50
2019-03-21T05:42:04.131Z,38.72
2019-03-21T05:43:04.128Z,39.34
2019-03-21T05:44:04.113Z,39.62
2019-03-21T05:45:04.117Z,39.84
2019-03-21T05:46:04.089Z,39.84
2019-03-21T05:47:04.080Z,39.94
2019-03-21T05:48:04.063Z,39.64
2019-03-21T05:49:04.057Z,39.94
2019-03-21T05:50:04.059Z,40.94
2019-03-21T05:51:04.038Z,40.73
2019-03-21T05:52:04.025Z,41.44
2019-03-21T05:53:04.015Z,41.05
2019-03-21T05:54:04.006Z,41.66
2019-03-21T05:55:04.014Z,41.46
2019-03-21T05:56:03.989Z,40.64
2019-03-21T05:57:03.987Z,40.73
2019-03-21T05:58:03.965Z,41.14
2019-03-21T05:59:03.954Z,40.73
2019-03-21T06:00:03.957Z,40.83
2019-03-21T06:01:03.933Z,40.94
2019-03-21T06:02:03.916Z,40.64
2019-03-21T06:03:03.906Z,40.44
2019-03-21T06:04:03.897Z,40.14
2019-03-21T06:05:03.920Z,40.73
2019-03-21T06:06:03.879Z,40.53
2019-03-21T06:07:03.869Z,40.95
2019-03-21T06:08:03.863Z,41.03
2019-03-21T06:09:03.853Z,41.44
2019-03-21T06:10:03.837Z,41.74
2019-03-21T06:11:03.844Z,42.25
2019-03-21T06:12:04.489Z,42.15
2019-03-21T06:13:04.495Z,43.13
2019-03-21T06:14:04.494Z,43.45
2019-03-21T06:15:04.493Z,43.25
2019-03-21T06:16:03.788Z,43.03
2019-03-21T06:17:03.768Z,44.33
2019-03-21T06:18:03.756Z,43.55
2019-03-21T06:19:03.740Z,44.13
2019-03-21T06:20:04.321Z,43.73
2019-03-21T06:21:03.729Z,43.63
2019-03-21T06:22:03.707Z,44.23
2019-03-21T06:23:03.699Z,43.73
2019-03-21T06:24:03.686Z,44.13
2019-03-21T06:25:03.681Z,43.73
2019-03-21T06:26:03.682Z,44.43
2019-03-21T06:27:14.106Z,44.43
2019-03-21T06:28:04.647Z,44.63
2019-03-21T06:29:03.635Z,44.65
2019-03-21T06:30:03.624Z,44.15
2019-03-21T06:31:03.632Z,43.55
2019-03-21T06:32:03.603Z,44.85
2019-03-21T06:33:03.592Z,44.85
2019-03-21T06:34:03.582Z,44.15
2019-03-21T06:35:03.575Z,43.65
2019-03-21T06:36:03.575Z,43.55
2019-03-21T06:37:03.551Z,43.67
2019-03-21T06:38:03.536Z,44.87
2019-03-21T06:39:03.526Z,44.47
2019-03-21T06:40:03.518Z,43.48
2019-03-21T06:41:03.527Z,42.27
2019-03-21T06:42:03.500Z,42.38
2019-03-21T06:43:03.489Z,41.77
2019-03-21T06:44:03.484Z,42.38
2019-03-21T06:45:03.467Z,42.99
2019-03-21T06:46:03.473Z,43.59
2019-03-21T06:47:03.445Z,43.19
2019-03-21T06:48:03.440Z,43.21
2019-03-21T06:49:03.430Z,43.51
2019-03-21T06:50:03.410Z,43.91
2019-03-21T06:51:03.435Z,43.62
2019-03-21T06:52:03.389Z,43.41
2019-03-21T06:53:03.493Z,43.51
2019-03-21T06:54:03.377Z,43.82
2019-03-21T06:55:03.369Z,44.32
2019-03-21T06:56:03.357Z,44.12
2019-03-21T06:57:03.364Z,44.21
2019-03-21T06:58:03.330Z,44.01
2019-03-21T06:59:03.321Z,43.82
2019-03-21T07:00:03.310Z,44.21
2019-03-21T07:01:03.303Z,44.12
2019-03-21T07:02:03.307Z,43.67
2019-03-21T07:03:03.277Z,42.27
2019-03-21T07:04:07.452Z,41.96
2019-03-21T07:05:03.257Z,41.53
2019-03-21T07:06:03.246Z,40.92
2019-03-21T07:07:07.969Z,40.30
2019-03-21T07:08:04.228Z,39.76
2019-03-21T07:09:03.209Z,39.36
2019-03-21T07:10:03.205Z,39.04
2019-03-21T07:11:03.194Z,38.73
2019-03-21T07:12:03.202Z,38.23
2019-03-21T07:13:03.172Z,38.53
2019-03-21T07:14:03.162Z,37.71
2019-03-21T07:15:04.483Z,37.51
2019-03-21T07:16:03.138Z,37.12
2019-03-21T07:17:03.145Z,37.10
2019-03-21T07:18:03.119Z,37.00
2019-03-21T07:19:03.108Z,37.40
2019-03-21T07:20:03.100Z,37.21
2019-03-21T07:21:03.089Z,37.32
2019-03-21T07:22:03.109Z,37.41
2019-03-21T07:23:03.066Z,37.21
2019-03-21T07:24:03.059Z,38.01
2019-03-21T07:25:03.040Z,37.92
2019-03-21T07:26:03.034Z,37.92
2019-03-21T07:27:03.041Z,37.51
2019-03-21T07:28:03.019Z,38.01
2019-03-21T07:29:02.999Z,37.62
2019-03-21T07:30:02.994Z,37.92
2019-03-21T07:31:02.978Z,37.51
2019-03-21T07:32:03.015Z,38.01
2019-03-21T07:33:02.956Z,37.92
2019-03-21T07:34:02.946Z,37.71
2019-03-21T07:35:02.936Z,37.21
2019-03-21T07:36:02.927Z,37.73
2019-03-21T07:37:02.922Z,37.12
2019-03-21T07:38:02.930Z,37.02
2019-03-21T07:39:02.893Z,37.12
2019-03-21T07:40:02.883Z,37.23
2019-03-21T07:41:02.871Z,37.41
2019-03-21T07:42:02.862Z,37.12
2019-03-21T07:43:02.872Z,37.21
2019-03-21T07:44:02.846Z,37.21
2019-03-21T07:45:02.834Z,37.41
2019-03-21T07:46:02.827Z,37.13
2019-03-21T07:47:12.050Z,37.34
2019-03-21T07:48:05.239Z,36.93
2019-03-21T07:49:02.791Z,37.13
2019-03-21T07:50:02.776Z,37.04
2019-03-21T07:51:02.771Z,37.13
2019-03-21T07:52:02.764Z,37.23
2019-03-21T07:53:02.766Z,37.04
2019-03-21T07:54:02.739Z,37.04
2019-03-21T07:55:02.733Z,38.03
2019-03-21T07:56:02.716Z,37.53
2019-03-21T07:57:02.705Z,37.13
2019-03-21T07:58:02.708Z,37.13
2019-03-21T07:59:02.684Z,37.23
2019-03-21T08:00:02.672Z,37.34
2019-03-21T08:01:02.664Z,37.43
2019-03-21T08:02:02.653Z,37.34
2019-03-21T08:03:02.654Z,37.34
2019-03-21T08:04:03.159Z,37.45
2019-03-21T08:05:02.623Z,37.65
2019-03-21T08:06:02.616Z,37.53
2019-03-21T08:07:02.611Z,37.35
2019-03-21T08:08:02.613Z,37.43
2019-03-21T08:09:02.579Z,37.55
2019-03-21T08:10:02.577Z,37.13
2019-03-21T08:11:02.555Z,37.75
2019-03-21T08:12:02.550Z,37.85
2019-03-21T08:13:02.551Z,37.75
2019-03-21T08:14:02.529Z,37.85
2019-03-21T08:15:02.518Z,37.55
2019-03-21T08:16:02.510Z,37.15
2019-03-21T08:17:02.495Z,37.05
2019-03-21T08:18:02.505Z,37.95
2019-03-21T08:19:02.470Z,37.17
2019-03-21T08:20:02.463Z,38.05
2019-03-21T08:21:02.451Z,37.65
2019-03-21T08:22:02.442Z,37.85
2019-03-21T08:23:02.463Z,38.05
2019-03-21T08:24:02.421Z,37.15
2019-03-21T08:25:02.415Z,37.15
2019-03-21T08:26:02.400Z,37.15
2019-03-21T08:27:02.391Z,37.75
2019-03-21T08:28:02.374Z,37.35
2019-03-21T08:29:02.379Z,37.25
2019-03-21T08:30:02.353Z,37.55
2019-03-21T08:31:02.346Z,37.75
2019-03-21T08:32:02.335Z,37.47
2019-03-21T08:33:03.214Z,37.35
2019-03-21T08:34:02.329Z,37.17
2019-03-21T08:35:02.305Z,37.97
2019-03-21T08:36:02.295Z,37.79
2019-03-21T08:37:02.279Z,37.68
2019-03-21T08:38:02.272Z,38.48
2019-03-21T08:39:02.277Z,38.48
2019-03-21T08:40:02.254Z,38.31
2019-03-21T08:41:02.240Z,38.20
2019-03-21T08:42:02.232Z,38.90
2019-03-21T08:43:02.219Z,39.22
2019-03-21T08:44:02.218Z,39.82
2019-03-21T08:45:02.197Z,39.64
2019-03-21T08:46:02.184Z,39.64
2019-03-21T08:47:02.176Z,39.34
2019-03-21T08:48:02.161Z,39.74
2019-03-21T08:49:02.167Z,39.64
2019-03-21T08:50:02.142Z,39.65
2019-03-21T08:51:08.099Z,39.95
2019-03-21T08:52:03.122Z,40.16
2019-03-21T08:53:02.114Z,40.16
2019-03-21T08:54:02.122Z,40.06
2019-03-21T08:55:02.088Z,40.66
2019-03-21T08:56:02.085Z,40.36
2019-03-21T08:57:02.071Z,40.36
2019-03-21T08:58:02.058Z,40.95
2019-03-21T08:59:02.066Z,40.25
2019-03-21T09:00:02.042Z,40.56
2019-03-21T09:01:02.029Z,41.16
2019-03-21T09:02:02.018Z,41.16
2019-03-21T09:03:02.009Z,40.06
2019-03-21T09:04:02.008Z,40.36
2019-03-21T09:05:02.004Z,40.56
2019-03-21T09:06:01.970Z,40.25
2019-03-21T09:07:01.971Z,39.86
2019-03-21T09:08:01.954Z,39.84
2019-03-21T09:09:01.959Z,39.64
2019-03-21T09:10:01.934Z,39.56
2019-03-21T09:11:01.923Z,40.04
2019-03-21T09:12:01.909Z,39.74
2019-03-21T09:13:01.898Z,39.74
2019-03-21T09:14:01.916Z,39.52
2019-03-21T09:15:01.882Z,39.72
2019-03-21T09:16:01.872Z,39.92
2019-03-21T09:17:01.862Z,39.82
2019-03-21T09:18:01.853Z,39.62
2019-03-21T09:19:01.841Z,39.02
2019-03-21T09:20:01.857Z,38.70
2019-03-21T09:21:01.821Z,39.52
2019-03-21T09:22:01.807Z,38.70
2019-03-21T09:23:01.792Z,38.90
2019-03-21T09:24:01.788Z,38.20
2019-03-21T09:25:04.575Z,38.20
2019-03-21T09:26:01.775Z,38.31
2019-03-21T09:27:01.757Z,38.31
2019-03-21T09:28:02.893Z,38.60
2019-03-21T09:29:01.728Z,38.60
2019-03-21T09:30:01.735Z,38.20
2019-03-21T09:31:01.716Z,38.78
2019-03-21T09:32:01.700Z,38.40
2019-03-21T09:33:01.709Z,38.48
2019-03-21T09:34:01.673Z,38.48
2019-03-21T09:35:01.683Z,38.68
2019-03-21T09:36:01.667Z,38.48
2019-03-21T09:37:04.108Z,38.39
2019-03-21T09:38:01.635Z,38.78
2019-03-21T09:39:01.622Z,38.78
2019-03-21T09:40:01.627Z,38.40
2019-03-21T09:41:01.635Z,38.31
2019-03-21T09:42:01.591Z,38.50
2019-03-21T09:43:03.154Z,38.40
2019-03-21T09:44:01.574Z,38.50
2019-03-21T09:45:01.603Z,38.80
2019-03-21T09:46:01.548Z,38.50
2019-03-21T09:47:01.540Z,38.80
2019-03-21T09:48:01.531Z,38.90
2019-03-21T09:49:01.520Z,38.78
2019-03-21T09:50:01.528Z,38.29
2019-03-21T09:51:01.495Z,37.88
2019-03-21T09:52:01.483Z,38.39
2019-03-21T09:53:01.480Z,37.98
2019-03-21T09:54:09.750Z,37.59
2019-03-21T09:55:02.487Z,38.09
2019-03-21T09:56:01.494Z,38.09
2019-03-21T09:57:01.434Z,37.49
2019-03-21T09:58:01.424Z,37.38
2019-03-21T09:59:01.410Z,38.18
2019-03-21T10:00:01.446Z,38.09
2019-03-21T10:01:01.392Z,38.09
2019-03-21T10:02:01.381Z,37.88
2019-03-21T10:03:01.368Z,37.59
2019-03-21T10:04:01.353Z,38.18
2019-03-21T10:05:01.384Z,38.18
2019-03-21T10:06:01.338Z,37.98
2019-03-21T10:07:01.323Z,38.18
2019-03-21T10:08:01.319Z,37.98
2019-03-21T10:09:01.323Z,37.98
2019-03-21T10:10:01.291Z,37.59
2019-03-21T10:11:01.297Z,37.08
2019-03-21T10:12:01.275Z,37.08
2019-03-21T10:13:01.266Z,37.98
2019-03-21T10:14:01.252Z,37.19
2019-03-21T10:15:01.244Z,37.87
2019-03-21T10:16:01.248Z,37.57
2019-03-21T10:17:01.221Z,37.77
2019-03-21T10:18:01.216Z,37.17
2019-03-21T10:19:01.195Z,37.47
2019-03-21T10:20:01.191Z,37.67
2019-03-21T10:21:01.190Z,37.97
2019-03-21T10:22:01.164Z,37.47
2019-03-21T10:23:01.155Z,37.87
2019-03-21T10:24:01.146Z,37.25
2019-03-21T10:25:01.141Z,37.67
2019-03-21T10:26:01.145Z,37.27
2019-03-21T10:27:01.114Z,37.27
2019-03-21T10:28:01.100Z,37.27
2019-03-21T10:29:01.098Z,37.07
2019-03-21T10:30:01.086Z,37.47
2019-03-21T10:31:01.099Z,37.05
2019-03-21T10:32:01.059Z,37.07
2019-03-21T10:33:01.049Z,37.07
2019-03-21T10:34:01.038Z,37.47
2019-03-21T10:35:01.039Z,37.17
2019-03-21T10:36:01.031Z,37.37
2019-03-21T10:37:01.001Z,37.37
2019-03-21T10:38:00.999Z,37.67
2019-03-21T10:39:00.985Z,37.47
2019-03-21T10:40:00.977Z,37.67
2019-03-21T10:41:00.994Z,37.77
2019-03-21T10:42:00.950Z,37.37
2019-03-21T10:43:00.943Z,37.07
2019-03-21T10:44:00.930Z,37.47
2019-03-21T10:45:00.926Z,36.77
2019-03-21T10:46:00.925Z,37.07
2019-03-21T10:47:00.899Z,36.77
2019-03-21T10:48:00.886Z,37.07
2019-03-21T10:49:00.885Z,37.27
2019-03-21T10:50:00.871Z,37.37
2019-03-21T10:51:00.890Z,36.97
2019-03-21T10:52:00.853Z,36.87
2019-03-21T10:53:00.837Z,37.47
2019-03-21T10:54:00.830Z,37.98
2019-03-21T10:55:00.812Z,37.38
2019-03-21T10:56:00.821Z,37.49
2019-03-21T10:57:00.811Z,37.79
2019-03-21T10:58:00.785Z,38.20
2019-03-21T10:59:00.770Z,37.60
2019-03-21T11:00:01.998Z,38.22
2019-03-21T11:01:00.749Z,38.52
2019-03-21T11:02:07.171Z,38.62
2019-03-21T11:03:01.728Z,38.74
2019-03-21T11:04:00.724Z,38.44
2019-03-21T11:05:00.707Z,38.24
2019-03-21T11:06:00.700Z,38.94
2019-03-21T11:07:00.706Z,38.84
2019-03-21T11:08:00.677Z,39.54
2019-03-21T11:09:00.670Z,39.54
2019-03-21T11:10:00.659Z,39.34
2019-03-21T11:11:00.646Z,39.43
2019-03-21T11:12:00.649Z,39.24
2019-03-21T11:13:00.629Z,39.26
2019-03-21T11:14:00.613Z,39.36
2019-03-21T11:15:00.603Z,39.46
2019-03-21T11:16:00.590Z,39.54
2019-03-21T11:17:00.642Z,39.43
2019-03-21T11:18:00.585Z,39.15
2019-03-21T11:19:00.559Z,39.36
2019-03-21T11:20:00.551Z,39.24
2019-03-21T11:21:00.554Z,39.34
2019-03-21T11:22:06.402Z,39.24
2019-03-21T11:23:01.522Z,38.94
2019-03-21T11:24:00.523Z,39.24
2019-03-21T11:25:00.495Z,39.14
2019-03-21T11:26:00.486Z,38.74
2019-03-21T11:27:00.494Z,39.12
2019-03-21T11:28:00.462Z,38.22
2019-03-21T11:29:00.454Z,38.42
2019-03-21T11:30:00.444Z,38.82
2019-03-21T11:31:00.437Z,38.62
2019-03-21T11:32:00.437Z,38.52
2019-03-21T11:33:00.411Z,38.62
2019-03-21T11:34:00.411Z,38.80
2019-03-21T11:35:00.392Z,37.90
2019-03-21T11:36:00.439Z,38.20
2019-03-21T11:37:00.386Z,37.81
2019-03-21T11:38:00.356Z,37.60
2019-03-21T11:39:00.348Z,38.20
2019-03-21T11:40:00.396Z,37.40
2019-03-21T11:41:00.325Z,37.21
2019-03-21T11:42:00.339Z,37.68
2019-03-21T11:43:00.318Z,37.51
2019-03-21T11:44:00.294Z,37.29
2019-03-21T11:45:00.397Z,37.59
2019-03-21T11:46:00.274Z,37.49
2019-03-21T11:47:00.287Z,37.98
2019-03-21T11:48:00.279Z,37.88
2019-03-21T11:49:00.251Z,37.79
2019-03-21T11:50:00.370Z,37.79
2019-03-21T11:51:00.218Z,37.27
2019-03-21T11:52:00.248Z,37.38
2019-03-21T11:53:00.202Z,37.19
2019-03-21T11:54:00.188Z,37.68
2019-03-21T11:55:00.455Z,37.08
2019-03-21T11:56:00.195Z,37.08
2019-03-21T11:57:00.156Z,37.19
2019-03-21T11:58:00.177Z,37.68
2019-03-21T11:59:00.203Z,37.57
2019-03-21T12:00:00.122Z,37.19
2019-03-21T12:01:00.115Z,37.59
2019-03-21T12:02:00.100Z,37.29
2019-03-21T12:03:00.126Z,37.68
2019-03-21T12:04:00.084Z,37.29
2019-03-21T12:05:00.075Z,37.59
2019-03-21T12:06:00.064Z,37.49
2019-03-21T12:07:00.054Z,37.08
2019-03-21T12:08:00.059Z,37.17
2019-03-21T12:09:00.025Z,36.79
2019-03-21T12:10:00.014Z,37.37
2019-03-21T12:11:00.018Z,37.49
2019-03-21T12:11:59.994Z,37.37
2019-03-21T12:13:00.000Z,36.97
2019-03-21T12:13:59.976Z,37.27
2019-03-21T12:14:59.962Z,36.87
2019-03-21T12:15:59.954Z,37.07
2019-03-21T12:16:59.945Z,37.27
2019-03-21T12:17:59.954Z,36.07
2019-03-21T12:18:59.928Z,36.37
2019-03-21T12:19:59.913Z,36.95
2019-03-21T12:20:59.906Z,36.47
2019-03-21T12:21:59.899Z,36.57
2019-03-21T12:22:59.906Z,36.57
2019-03-21T12:23:59.866Z,36.77
2019-03-21T12:24:59.861Z,36.77
2019-03-21T12:25:59.854Z,36.27
2019-03-21T12:26:59.835Z,36.97
2019-03-21T12:28:01.500Z,36.57
2019-03-21T12:28:59.821Z,36.37
2019-03-21T12:29:59.805Z,36.27
2019-03-21T12:30:59.801Z,36.87
2019-03-21T12:31:59.785Z,36.77
2019-03-21T12:32:59.789Z,36.77
2019-03-21T12:33:59.762Z,35.97
2019-03-21T12:34:59.768Z,36.57
2019-03-21T12:35:59.741Z,36.67
2019-03-21T12:36:59.728Z,36.57
2019-03-21T12:37:59.731Z,36.85
2019-03-21T12:38:59.708Z,36.77
2019-03-21T12:39:59.696Z,35.97
2019-03-21T12:40:59.689Z,36.07
2019-03-21T12:41:59.676Z,36.05
2019-03-21T12:42:59.682Z,36.05
2019-03-21T12:43:59.659Z,36.37
2019-03-21T12:44:59.645Z,36.27
2019-03-21T12:45:59.633Z,36.25
2019-03-21T12:46:59.626Z,35.96
2019-03-21T12:47:59.627Z,36.25
2019-03-21T12:48:59.605Z,36.05
2019-03-21T12:49:59.591Z,36.35
2019-03-21T12:50:59.584Z,36.25
2019-03-21T12:51:59.566Z,36.16